Time;durP1;ratioP1;P1;durP2;ratioP2;P2;SDS_P1;SDS_P2;PMS_P1;PMS_P2;Temp;Humidity;BMP_temperature;BMP_pressure;BME280_temperature;BME280_humidity;BME280_pressure;Samples;Min_cycle;Max_cycle;Signal;HPM_P1;HPM_P2
2022/05/11 00:01:46;;;;;;;10.93;6.80;;;;;;;14.75;65.54;100238.41;4954832;29;20059;-73
2022/05/11 00:04:12;;;;;;;10.27;7.57;;;;;;;14.77;65.66;100247.28;4938799;29;20039;-73
2022/05/11 00:06:39;;;;;;;12.27;6.85;;;;;;;14.77;64.84;100246.50;4954545;28;20524;-74
2022/05/11 00:09:14;;;;;;;8.32;6.55;;;;;;;14.77;64.89;100243.63;4955834;28;20114;-73
2022/05/11 00:11:40;;;;;;;9.07;6.32;;;;;;;14.72;64.89;100235.78;4955521;28;20042;-74
2022/05/11 00:14:07;;;;;;;11.07;6.70;;;;;;;14.68;65.51;100233.94;4937976;29;20043;-74
2022/05/11 00:16:41;;;;;;;11.93;7.65;;;;;;;14.66;65.75;100238.59;4955423;28;20043;-74
2022/05/11 00:19:07;;;;;;;9.93;6.82;;;;;;;14.59;65.92;100231.25;4954421;29;20062;-75
2022/05/11 00:21:32;;;;;;;10.60;7.22;;;;;;;14.59;65.21;100225.53;4938125;29;20063;-74
2022/05/11 00:23:58;;;;;;;11.45;7.68;;;;;;;14.56;65.05;100215.06;4954164;29;20490;-73
2022/05/11 00:26:24;;;;;;;10.52;6.18;;;;;;;14.52;65.44;100220.25;4955725;28;20126;-74
2022/05/11 00:28:51;;;;;;;10.05;7.05;;;;;;;14.31;65.94;100204.41;4938038;29;20133;-74
2022/05/11 00:31:17;;;;;;;10.55;6.78;;;;;;;14.43;65.92;100220.44;4954129;29;20035;-74
2022/05/11 00:33:44;;;;;;;15.65;7.30;;;;;;;14.39;66.20;100222.75;4938324;29;20075;-73
2022/05/11 00:36:11;;;;;;;11.38;7.03;;;;;;;14.40;65.78;100221.47;4954362;29;20495;-72
2022/05/11 00:38:36;;;;;;;11.10;6.63;;;;;;;14.38;65.57;100214.66;4938140;29;20043;-72
2022/05/11 00:41:03;;;;;;;11.77;7.55;;;;;;;14.36;66.25;100212.28;4955506;28;20077;-74
2022/05/11 00:43:37;;;;;;;11.15;7.40;;;;;;;14.35;66.16;100210.72;4954206;29;20478;-73
2022/05/11 00:46:28;;;;;;;11.80;7.32;;;;;;;14.34;66.79;100212.00;4954259;29;20361;-73
2022/05/11 00:51:43;;;;;;;11.70;6.90;;;;;;;14.29;66.53;100207.00;4954243;29;20105;-74
2022/05/11 00:54:09;;;;;;;10.25;7.35;;;;;;;14.27;66.66;100196.03;4953942;29;20046;-74
2022/05/11 00:56:38;;;;;;;10.10;7.15;;;;;;;14.31;66.35;100197.91;4953887;29;20395;-72
2022/05/11 00:59:09;;;;;;;9.10;6.68;;;;;;;14.32;66.90;100205.19;4922236;29;20488;-73
2022/05/11 01:01:44;;;;;;;11.13;7.47;;;;;;;14.27;66.59;100198.13;4922440;29;20433;-74
2022/05/11 01:04:17;;;;;;;9.38;6.30;;;;;;;14.33;66.54;100207.56;4954352;29;20062;-74
2022/05/11 01:06:42;;;;;;;9.27;7.25;;;;;;;14.33;66.36;100204.69;4954329;29;20062;-74
2022/05/11 01:09:10;;;;;;;13.45;7.55;;;;;;;14.35;66.35;100199.25;4954145;29;20057;-74
2022/05/11 01:11:57;;;;;;;7.47;6.50;;;;;;;14.42;67.07;100206.59;4955059;28;20066;-73
2022/05/11 01:14:27;;;;;;;10.05;6.63;;;;;;;14.42;66.87;100206.59;4937638;29;20090;-73
2022/05/11 01:16:56;;;;;;;11.18;7.90;;;;;;;14.46;66.84;100192.81;4938122;29;20036;-73
2022/05/11 01:19:33;;;;;;;10.70;7.07;;;;;;;14.48;67.13;100193.13;4921857;29;20488;-73
2022/05/11 01:22:11;;;;;;;11.90;7.15;;;;;;;14.51;66.67;100194.94;4953855;29;20074;-73
2022/05/11 01:24:43;;;;;;;10.23;6.43;;;;;;;14.55;66.35;100186.94;4953391;28;20066;-74
2022/05/11 01:27:31;;;;;;;12.13;7.35;;;;;;;14.52;66.72;100185.06;4940275;29;20440;-73
2022/05/11 01:30:23;;;;;;;9.85;6.85;;;;;;;14.53;67.04;100180.91;4940872;29;20378;-74
2022/05/11 01:32:52;;;;;;;9.15;6.97;;;;;;;14.54;66.31;100177.53;4957784;28;20051;-73
2022/05/11 01:35:47;;;;;;;9.05;6.95;;;;;;;14.54;66.73;100182.47;4941277;29;20027;-73
2022/05/11 01:38:32;;;;;;;9.52;6.55;;;;;;;14.53;66.18;100178.03;4958463;28;20028;-73
2022/05/11 01:40:59;;;;;;;9.60;6.50;;;;;;;14.48;66.68;100178.78;4957019;28;20023;-74
2022/05/11 01:43:36;;;;;;;11.48;6.55;;;;;;;14.51;66.42;100172.81;4958202;28;20035;-73
2022/05/11 01:46:04;;;;;;;11.93;7.13;;;;;;;14.53;66.30;100187.44;4941329;29;20027;-74
2022/05/11 01:48:30;;;;;;;11.50;7.10;;;;;;;14.51;66.41;100172.81;4940870;29;20028;-73
2022/05/11 01:50:57;;;;;;;10.20;6.85;;;;;;;14.55;66.45;100164.00;4940681;29;20472;-73
2022/05/11 01:53:23;;;;;;;10.00;7.10;;;;;;;14.55;66.46;100164.00;4940824;29;20031;-73
2022/05/11 01:55:49;;;;;;;11.15;6.82;;;;;;;14.57;66.62;100167.91;4956536;29;20046;-74
2022/05/11 01:58:16;;;;;;;9.32;6.60;;;;;;;14.58;66.66;100169.47;4956807;28;20085;-72
2022/05/11 02:00:45;;;;;;;14.82;7.32;;;;;;;14.62;66.45;100158.56;4940681;29;20047;-73
2022/05/11 02:03:10;;;;;;;11.73;7.05;;;;;;;14.62;66.41;100152.84;4925083;29;20090;-74
2022/05/11 02:08:21;;;;;;;9.25;6.93;;;;;;;14.59;66.80;100145.25;4957900;29;20511;-73
2022/05/11 02:10:47;;;;;;;7.53;6.30;;;;;;;14.64;66.36;100150.25;4957857;28;20461;-74
2022/05/11 02:13:14;;;;;;;8.65;6.78;;;;;;;14.63;65.98;100142.94;4957937;28;20109;-73
2022/05/11 02:15:40;;;;;;;10.35;6.53;;;;;;;14.59;66.11;100133.00;4957944;28;20031;-74
2022/05/11 02:18:06;;;;;;;8.15;6.07;;;;;;;14.64;66.26;100140.88;4957459;28;20447;-74
2022/05/11 02:20:32;;;;;;;10.85;7.25;;;;;;;14.62;66.10;100138.50;4940224;29;20023;-74
2022/05/11 02:23:01;;;;;;;10.25;6.50;;;;;;;14.60;66.17;100135.34;4956473;29;20083;-72
2022/05/11 02:25:28;;;;;;;13.23;6.70;;;;;;;14.67;66.11;100145.56;4957557;28;20067;-73
2022/05/11 02:27:53;;;;;;;9.93;6.57;;;;;;;14.68;65.92;100144.28;4956182;29;20038;-73
2022/05/11 02:30:27;;;;;;;11.48;6.82;;;;;;;14.65;66.49;100137.47;4940005;29;20043;-73
2022/05/11 02:32:53;;;;;;;7.85;6.45;;;;;;;14.63;66.47;100130.69;4944872;29;20111;-73
2022/05/11 02:35:21;;;;;;;11.00;6.63;;;;;;;14.60;66.68;100143.94;4945110;29;20528;-74
2022/05/11 02:37:57;;;;;;;9.85;6.68;;;;;;;14.59;66.39;100136.66;4944920;28;20110;-72
2022/05/11 02:40:29;;;;;;;12.68;6.40;;;;;;;14.57;66.35;100138.44;4961034;29;20020;-72
2022/05/11 02:42:56;;;;;;;9.48;6.47;;;;;;;14.53;66.59;100135.84;4944501;29;20022;-72
2022/05/11 02:45:28;;;;;;;9.45;6.25;;;;;;;14.51;66.52;100140.50;4960279;29;20035;-73
2022/05/11 02:47:56;;;;;;;8.32;5.95;;;;;;;14.50;66.69;100136.88;4958871;28;20448;-73
2022/05/11 02:50:31;;;;;;;10.32;6.78;;;;;;;14.50;66.91;100141.81;4940038;29;20035;-73
2022/05/11 02:52:57;;;;;;;8.68;6.18;;;;;;;14.50;66.32;100127.47;4955671;29;20462;-74
2022/05/11 02:55:23;;;;;;;10.15;6.82;;;;;;;14.48;67.02;100127.97;4956934;28;20093;-74
2022/05/11 02:57:49;;;;;;;12.63;6.75;;;;;;;14.51;66.55;100134.75;4955779;29;20377;-74
2022/05/11 03:00:17;;;;;;;8.15;6.25;;;;;;;14.49;66.81;100135.28;4956538;28;20526;-74
2022/05/11 03:02:44;;;;;;;11.32;6.72;;;;;;;14.46;66.63;100132.63;4956128;29;20034;-73
2022/05/11 03:05:12;;;;;;;10.40;6.93;;;;;;;14.49;66.79;100141.03;4956558;28;20118;-73
2022/05/11 03:07:39;;;;;;;13.25;9.15;;;;;;;14.50;67.00;100138.94;4939534;29;20035;-74
2022/05/11 03:10:08;;;;;;;8.80;7.10;;;;;;;14.50;66.99;100145.47;4954268;29;20499;-74
2022/05/11 03:12:35;;;;;;;9.73;7.47;;;;;;;14.50;67.09;100147.53;4923770;29;20039;-73
2022/05/11 03:15:01;;;;;;;9.02;7.10;;;;;;;14.50;67.16;100144.69;4955543;28;20063;-74
2022/05/11 03:17:26;;;;;;;12.88;7.45;;;;;;;14.49;66.98;100141.03;4923448;29;20032;-73
2022/05/11 03:19:53;;;;;;;10.23;7.03;;;;;;;14.50;67.15;100156.94;4955436;29;20038;-73
2022/05/11 03:22:19;;;;;;;10.07;7.63;;;;;;;14.48;67.59;100135.78;4956487;28;20357;-74
2022/05/11 03:24:45;;;;;;;12.45;8.57;;;;;;;14.50;67.36;100145.47;4955137;29;20496;-73
2022/05/11 03:27:13;;;;;;;15.85;8.77;;;;;;;14.52;67.25;100139.19;4956216;28;20019;-74
2022/05/11 03:29:38;;;;;;;15.05;8.38;;;;;;;14.52;67.39;100142.84;4938928;29;20043;-73
2022/05/11 03:34:52;;;;;;;14.57;7.65;;;;;;;14.67;67.01;100143.47;4956212;28;20057;-74
2022/05/11 03:37:19;;;;;;;11.73;8.20;;;;;;;14.73;67.19;100143.53;4954849;28;20464;-74
2022/05/11 03:39:46;;;;;;;13.10;7.93;;;;;;;14.79;66.79;100137.81;4954820;29;20058;-74
2022/05/11 03:42:18;;;;;;;12.40;8.25;;;;;;;14.87;66.37;100141.78;4955266;29;20031;-74
2022/05/11 03:44:46;;;;;;;12.00;7.80;;;;;;;14.92;66.71;100141.00;4954740;28;20042;-73
2022/05/11 03:47:12;;;;;;;12.38;7.30;;;;;;;14.96;66.64;100124.34;4939027;29;20490;-73
2022/05/11 03:49:39;;;;;;;10.40;6.50;;;;;;;15.00;65.97;100137.13;4938501;29;20364;-73
2022/05/11 03:52:05;;;;;;;13.27;6.95;;;;;;;15.00;65.66;100139.22;4954780;29;20031;-73
2022/05/11 03:54:32;;;;;;;11.50;6.85;;;;;;;15.05;66.01;100138.47;4954497;29;20086;-73
2022/05/11 03:56:57;;;;;;;9.60;7.38;;;;;;;15.06;65.83;100131.44;4954555;29;20113;-73
2022/05/11 03:59:23;;;;;;;14.77;7.70;;;;;;;15.12;65.76;100135.91;4954493;29;20449;-74
2022/05/11 04:01:49;;;;;;;10.15;7.25;;;;;;;15.11;65.91;100131.47;4938354;29;20031;-74
2022/05/11 04:04:15;;;;;;;9.80;6.57;;;;;;;15.24;65.59;100151.09;4954478;29;20030;-74
2022/05/11 04:06:43;;;;;;;10.55;6.90;;;;;;;15.33;65.77;100145.13;4954375;29;20031;-72
2022/05/11 04:09:09;;;;;;;11.80;6.75;;;;;;;15.43;65.22;100142.81;4954227;28;20023;-72
2022/05/11 04:11:36;;;;;;;10.13;7.22;;;;;;;15.53;65.00;100139.22;4955782;28;20069;-74
2022/05/11 04:14:02;;;;;;;10.43;7.72;;;;;;;15.68;64.85;100146.81;4955599;28;20023;-72
2022/05/11 04:16:28;;;;;;;8.50;7.38;;;;;;;15.82;64.62;100140.06;4938003;29;20019;-72
2022/05/11 04:18:53;;;;;;;8.90;6.80;;;;;;;16.01;63.89;100137.47;4938083;29;20031;-73
2022/05/11 04:21:22;;;;;;;10.52;7.25;;;;;;;16.16;63.52;100129.38;4938042;29;20023;-73
2022/05/11 04:23:48;;;;;;;10.20;6.97;;;;;;;16.31;62.94;100136.44;4953844;29;20126;-73
2022/05/11 04:26:14;;;;;;;13.70;6.32;;;;;;;16.50;62.17;100138.78;4954107;28;20082;-73
2022/05/11 04:28:43;;;;;;;8.68;5.03;;;;;;;16.57;61.54;100132.50;4959387;28;20050;-73
2022/05/11 04:31:10;;;;;;;5.75;4.72;;;;;;;16.69;60.95;100140.59;4953339;28;20035;-73
2022/05/11 04:33:36;;;;;;;7.57;4.75;;;;;;;16.79;60.37;100141.88;4937996;29;20045;-73
2022/05/11 04:36:04;;;;;;;6.78;5.20;;;;;;;16.88;60.39;100140.81;4940390;28;20034;-73
2022/05/11 04:38:30;;;;;;;10.70;5.47;;;;;;;17.02;59.67;100141.84;4953977;29;20428;-73
2022/05/11 04:40:57;;;;;;;6.78;5.15;;;;;;;17.14;58.94;100144.13;4921933;29;20016;-73
2022/05/11 04:43:22;;;;;;;8.15;5.00;;;;;;;17.28;58.92;100148.78;4972995;28;20038;-74
2022/05/11 04:45:49;;;;;;;6.75;4.70;;;;;;;17.45;57.91;100145.06;4944162;28;20041;-75
2022/05/11 04:48:23;;;;;;;6.68;4.40;;;;;;;17.51;57.53;100134.31;4975037;28;20098;-77
2022/05/11 04:50:50;;;;;;;6.72;4.68;;;;;;;17.58;57.77;100142.38;4973481;28;20040;-77
2022/05/11 04:53:30;;;;;;;6.38;4.00;;;;;;;17.68;57.66;100147.31;4975429;28;20042;-78
2022/05/11 04:55:57;;;;;;;6.25;4.35;;;;;;;17.79;57.79;100139.91;4958511;28;20092;-77
2022/05/11 04:58:24;;;;;;;5.53;4.55;;;;;;;17.92;57.71;100140.09;4958087;28;20086;-79
2022/05/11 05:00:51;;;;;;;8.85;3.78;;;;;;;17.95;57.45;100139.03;4975193;28;20030;-79
2022/05/11 05:03:17;;;;;;;8.50;4.38;;;;;;;18.17;57.48;100144.63;4979128;28;20505;-80
2022/05/11 05:05:43;;;;;;;6.68;4.47;;;;;;;18.32;56.37;100142.13;4981608;28;20057;-78
2022/05/11 05:08:11;;;;;;;5.97;4.20;;;;;;;18.49;56.52;100144.88;4980720;28;20117;-77
2022/05/11 05:10:37;;;;;;;6.10;5.10;;;;;;;18.58;56.05;100143.78;4963991;28;20034;-78
2022/05/11 05:13:15;;;;;;;5.05;4.10;;;;;;;18.69;55.78;100144.47;4947492;28;20468;-76
2022/05/11 05:15:42;;;;;;;4.78;3.75;;;;;;;18.86;55.76;100158.72;4980546;28;20065;-78
2022/05/11 05:18:09;;;;;;;7.55;4.05;;;;;;;18.96;55.11;100157.81;4964361;28;20027;-78
2022/05/11 05:20:37;;;;;;;6.93;4.32;;;;;;;19.09;54.81;100162.94;4949976;28;20042;-79
2022/05/11 05:23:04;;;;;;;14.40;4.85;;;;;;;19.23;54.42;100170.38;4982415;28;20018;-80
2022/05/11 05:25:29;;;;;;;9.25;5.03;;;;;;;19.30;54.40;100157.41;4963614;28;20026;-78
2022/05/11 05:31:04;;;;;;;9.48;4.20;;;;;;;19.47;54.01;100165.91;4961561;28;20031;-77
2022/05/11 05:33:28;;;;;;;7.10;4.47;;;;;;;19.58;54.29;100160.78;4958416;29;20508;-79
2022/05/11 05:35:54;;;;;;;5.60;3.95;;;;;;;19.72;54.10;100174.00;4974606;28;20027;-81
2022/05/11 05:38:21;;;;;;;5.47;4.22;;;;;;;19.82;52.75;100168.59;4961348;29;20027;-81
2022/05/11 05:40:46;;;;;;;7.18;4.68;;;;;;;19.94;53.48;100160.53;4943865;29;20031;-78
2022/05/11 05:43:12;;;;;;;8.45;4.30;;;;;;;20.04;52.95;100170.38;4959901;28;20042;-83
2022/05/11 05:45:38;;;;;;;7.25;4.25;;;;;;;20.24;52.65;100170.56;4957605;29;20028;-82
2022/05/11 05:48:04;;;;;;;5.00;3.72;;;;;;;20.47;52.03;100168.16;4957570;28;20053;-84
2022/05/11 05:50:30;;;;;;;9.23;4.50;;;;;;;20.72;51.99;100165.09;4960260;28;20465;-84
2022/05/11 05:52:55;;;;;;;4.90;4.00;;;;;;;20.86;50.66;100150.06;4957816;29;20038;-83
2022/05/11 05:55:21;;;;;;;8.98;4.07;;;;;;;21.20;50.72;100164.72;4958372;28;20078;-80
2022/05/11 05:57:47;;;;;;;6.95;3.78;;;;;;;21.27;49.54;100163.25;4956858;29;20469;-80
2022/05/11 06:00:14;;;;;;;7.72;4.45;;;;;;;21.29;49.27;100163.47;4957173;29;20031;-80
2022/05/11 06:02:39;;;;;;;4.63;3.83;;;;;;;21.45;48.61;100168.16;4957633;28;20114;-78
2022/05/11 06:05:04;;;;;;;5.70;3.92;;;;;;;21.61;48.64;100172.81;4956561;28;20130;-79
2022/05/11 06:07:30;;;;;;;7.85;4.47;;;;;;;21.87;47.47;100174.88;4955344;28;20031;-78
2022/05/11 06:09:55;;;;;;;7.70;4.28;;;;;;;22.09;47.91;100167.81;4956021;29;20038;-78
2022/05/11 06:12:22;;;;;;;6.95;4.00;;;;;;;22.33;48.74;100170.41;4954282;28;20031;-81
2022/05/11 06:14:48;;;;;;;11.70;4.40;;;;;;;22.63;46.59;100179.41;4957851;29;20039;-79
2022/05/11 06:17:17;;;;;;;6.80;4.22;;;;;;;22.82;47.47;100173.41;4958240;28;20045;-80
2022/05/11 06:19:50;;;;;;;5.90;3.78;;;;;;;23.09;46.24;100177.66;4956343;29;20058;-79
2022/05/11 06:22:16;;;;;;;5.25;3.67;;;;;;;23.30;45.51;100165.22;4939455;28;20074;-79
2022/05/11 06:24:41;;;;;;;3.47;3.22;;;;;;;23.48;46.15;100175.84;4956706;28;20027;-77
2022/05/11 06:27:15;;;;;;;6.95;4.05;;;;;;;23.54;44.51;100161.88;4955000;28;20098;-78
2022/05/11 06:29:40;;;;;;;5.78;3.65;;;;;;;23.83;43.92;100169.19;4937074;29;20130;-77
2022/05/11 06:32:06;;;;;;;4.50;3.42;;;;;;;24.82;42.94;100178.16;4954554;28;20109;-77
2022/05/11 06:34:31;;;;;;;11.77;4.05;;;;;;;26.77;39.47;100182.38;4938798;29;20031;-78
2022/05/11 06:36:56;;;;;;;5.13;2.97;;;;;;;28.55;36.46;100163.22;4976249;28;20038;-78
2022/05/11 06:39:23;;;;;;;4.82;3.15;;;;;;;30.44;32.23;100178.63;4978020;28;20015;-79
2022/05/11 06:41:49;;;;;;;4.55;3.22;;;;;;;32.18;30.25;100176.19;4962410;29;20027;-79
2022/05/11 06:44:14;;;;;;;5.50;3.67;;;;;;;32.89;26.58;100177.91;4977158;29;20073;-77
2022/05/11 06:46:39;;;;;;;4.05;3.33;;;;;;;33.55;25.54;100172.44;4977673;28;20028;-78
2022/05/11 06:49:04;;;;;;;7.20;3.70;;;;;;;33.61;27.03;100175.75;4979199;28;20099;-79
2022/05/11 06:51:30;;;;;;;5.30;3.10;;;;;;;33.84;26.48;100169.06;4979432;28;20307;-81
2022/05/11 06:59:26;;;;;;;4.78;2.95;;;;;;;33.25;26.62;100164.69;4957804;29;20054;-79
2022/05/11 07:01:55;;;;;;;2.95;2.58;;;;;;;33.30;26.16;100172.38;4955763;28;20031;-80
2022/05/11 07:04:23;;;;;;;3.28;2.92;;;;;;;33.54;25.03;100170.91;4956158;29;20027;-81
2022/05/11 07:06:56;;;;;;;3.88;3.05;;;;;;;33.53;25.44;100160.50;4940158;29;20118;-80
2022/05/11 07:09:24;;;;;;;4.40;3.72;;;;;;;33.59;24.04;100160.13;4956556;29;20027;-79
2022/05/11 07:14:33;;;;;;;4.15;3.25;;;;;;;33.60;25.10;100152.78;4956057;29;20045;-80
2022/05/11 07:16:59;;;;;;;5.60;3.78;;;;;;;33.07;25.69;100152.47;4956985;29;20035;-79
2022/05/11 07:19:25;;;;;;;4.33;2.67;;;;;;;32.78;25.45;100158.00;4956779;28;20435;-80
2022/05/11 07:21:51;;;;;;;3.95;3.60;;;;;;;32.52;25.31;100165.88;4955954;28;20283;-80
2022/05/11 07:24:16;;;;;;;8.05;3.85;;;;;;;32.28;25.88;100158.41;4956486;28;20035;-80
2022/05/11 07:26:42;;;;;;;6.50;3.83;;;;;;;31.76;26.66;100153.47;4956612;29;20035;-80
2022/05/11 07:29:07;;;;;;;4.15;3.08;;;;;;;31.78;27.16;100150.63;4963923;28;20043;-80
2022/05/11 07:31:33;;;;;;;18.50;5.57;;;;;;;31.89;26.05;100160.94;4975624;28;20053;-80
2022/05/11 07:33:58;;;;;;;4.78;3.25;;;;;;;31.98;26.50;100163.03;4959192;28;20058;-79
2022/05/11 07:36:24;;;;;;;5.43;3.65;;;;;;;32.19;26.87;100154.16;4942571;28;20443;-79
2022/05/11 07:38:50;;;;;;;4.15;2.78;;;;;;;32.03;26.26;100158.94;4958176;28;20035;-79
2022/05/11 07:41:16;;;;;;;4.60;2.67;;;;;;;32.07;26.79;100153.34;4958043;28;20022;-79
2022/05/11 07:43:41;;;;;;;6.05;3.58;;;;;;;31.99;26.35;100159.44;4975670;28;20086;-79
2022/05/11 07:46:07;;;;;;;3.63;3.33;;;;;;;31.75;26.79;100157.03;4975675;28;20018;-79
2022/05/11 07:48:32;;;;;;;5.57;3.42;;;;;;;31.57;27.06;100151.47;4975919;28;20478;-81
2022/05/11 07:50:57;;;;;;;3.70;3.33;;;;;;;31.48;27.70;100142.66;4975469;28;20091;-80
2022/05/11 07:53:23;;;;;;;7.60;4.10;;;;;;;31.75;28.03;100146.03;4975520;28;20051;-82
2022/05/11 07:59:52;;;;;;;5.65;4.40;;;;;;;31.92;28.28;100136.84;4958117;28;20031;-80
2022/05/11 08:01:17;;;;;;;3.78;3.38;;;;;;;32.38;26.98;100147.28;4975649;28;20451;-82
2022/05/11 08:03:43;;;;;;;7.03;3.53;;;;;;;32.37;25.70;100136.88;4975369;28;20026;-80
2022/05/11 08:06:10;;;;;;;4.68;3.15;;;;;;;33.17;26.88;100129.50;4958331;28;20294;-80
2022/05/11 08:08:35;;;;;;;6.03;3.53;;;;;;;34.23;25.98;100130.69;4975220;28;20034;-80
2022/05/11 08:11:01;;;;;;;4.05;2.92;;;;;;;35.25;22.77;100137.13;4975163;28;20464;-80
2022/05/11 08:13:26;;;;;;;4.65;3.03;;;;;;;35.94;21.72;100135.56;4957911;28;20490;-80
2022/05/11 08:15:51;;;;;;;3.30;3.00;;;;;;;36.53;21.18;100130.34;4957533;28;20117;-80
2022/05/11 08:18:18;;;;;;;3.33;2.95;;;;;;;37.01;20.33;100134.09;4975145;28;20023;-81
2022/05/11 08:20:46;;;;;;;3.45;2.72;;;;;;;37.54;21.39;100138.06;4974798;28;20022;-80
2022/05/11 08:23:12;;;;;;;3.28;2.92;;;;;;;37.85;18.93;100131.22;4957740;28;20077;-80
2022/05/11 08:25:42;;;;;;;5.13;3.22;;;;;;;37.56;19.50;100141.13;4957782;28;20054;-80
2022/05/11 08:28:13;;;;;;;5.75;2.53;;;;;;;37.15;18.06;100137.75;4975286;28;20027;-80
2022/05/11 08:33:27;;;;;;;4.03;3.40;;;;;;;36.83;21.46;100139.97;4955812;29;20422;-81
2022/05/11 08:36:01;;;;;;;3.10;2.80;;;;;;;36.80;19.06;100138.34;4953726;28;20055;-81
2022/05/11 08:38:29;;;;;;;5.05;2.70;;;;;;;37.09;19.17;100140.44;4938412;29;20034;-81
2022/05/11 08:41:34;;;;;;;6.60;3.75;;;;;;;37.59;19.51;100121.16;4938490;29;20019;-80
2022/05/11 08:44:11;;;;;;;3.45;3.00;;;;;;;37.79;18.43;100112.34;4955204;28;20082;-80
2022/05/11 08:46:43;;;;;;;3.08;2.80;;;;;;;37.75;18.81;100124.81;4955455;28;20027;-81
2022/05/11 08:49:08;;;;;;;3.22;2.92;;;;;;;37.50;19.98;100119.22;4955714;28;20034;-81
2022/05/11 08:51:37;;;;;;;3.17;2.95;;;;;;;37.11;19.38;100126.44;4955269;28;20098;-81
2022/05/11 08:54:14;;;;;;;5.88;2.90;;;;;;;37.39;20.43;100115.06;4959106;29;20048;-82
2022/05/11 08:56:41;;;;;;;4.47;2.58;;;;;;;37.74;20.34;100107.69;4954655;28;20031;-79
2022/05/11 08:59:11;;;;;;;3.75;3.45;;;;;;;37.45;18.73;100106.41;4955439;28;20023;-80
2022/05/11 09:01:45;;;;;;;4.35;3.42;;;;;;;36.96;19.89;100112.34;4954219;29;20020;-80
2022/05/11 09:04:14;;;;;;;6.60;3.40;;;;;;;37.01;19.84;100104.38;4954208;29;20030;-80
2022/05/11 09:06:43;;;;;;;3.42;3.13;;;;;;;36.84;20.01;100105.09;4954203;29;20050;-80
2022/05/11 09:09:11;;;;;;;3.38;3.08;;;;;;;36.32;22.17;100098.16;4954499;28;20034;-80
2022/05/11 09:11:54;;;;;;;4.25;3.33;;;;;;;36.31;20.78;100099.59;4942388;29;20027;-81
2022/05/11 09:14:34;;;;;;;8.18;3.28;;;;;;;36.24;20.83;100097.78;4955403;28;20388;-80
2022/05/11 09:17:00;;;;;;;2.95;2.75;;;;;;;36.01;20.45;100095.13;4953806;29;20039;-78
2022/05/11 09:19:32;;;;;;;6.70;3.38;;;;;;;35.47;21.33;100094.59;4955029;29;20082;-81
2022/05/11 09:22:07;;;;;;;7.95;3.50;;;;;;;35.58;21.92;100092.16;4954191;28;20023;-77
2022/05/11 09:24:46;;;;;;;3.95;3.38;;;;;;;35.58;22.45;100095.91;4955187;28;20480;-78
2022/05/11 09:27:27;;;;;;;3.53;2.58;;;;;;;35.56;22.22;100095.03;4923248;29;20069;-80
2022/05/11 09:30:05;;;;;;;4.82;2.80;;;;;;;35.44;21.21;100089.25;4955124;29;20563;-79
2022/05/11 09:32:44;;;;;;;4.03;2.80;;;;;;;35.02;21.71;100093.69;4954501;28;20046;-79
2022/05/11 09:35:37;;;;;;;5.20;2.78;;;;;;;34.95;21.01;100094.75;4955541;28;20062;-79
2022/05/11 09:38:05;;;;;;;4.22;2.75;;;;;;;34.97;21.05;100083.81;4955342;28;20480;-79
2022/05/11 09:40:54;;;;;;;3.90;3.35;;;;;;;34.94;21.18;100081.38;4954242;29;20037;-78
2022/05/11 09:43:46;;;;;;;3.75;2.70;;;;;;;35.08;22.83;100073.25;4954556;29;20027;-79
2022/05/11 09:46:34;;;;;;;5.45;3.13;;;;;;;35.37;21.83;100075.56;4938485;29;20049;-79
2022/05/11 09:49:02;;;;;;;4.00;3.10;;;;;;;35.42;21.19;100077.28;4958395;29;20031;-78
2022/05/11 09:51:44;;;;;;;5.78;2.88;;;;;;;35.37;21.03;100064.47;4958330;29;20030;-79
2022/05/11 09:54:19;;;;;;;5.15;3.13;;;;;;;35.19;20.54;100072.38;5054163;23;20054;-75
2022/05/11 09:57:05;;;;;;;3.60;2.72;;;;;;;35.16;21.56;100061.84;4977742;28;20093;-77
2022/05/11 09:59:36;;;;;;;4.40;3.15;;;;;;;35.09;20.94;100054.81;4960925;28;20035;-78
2022/05/11 10:02:35;;;;;;;3.63;2.87;;;;;;;34.82;20.55;100051.13;4994487;28;20018;-78
2022/05/11 10:05:07;;;;;;;3.70;2.80;;;;;;;34.69;21.73;100061.53;5011944;28;20031;-79
2022/05/11 10:08:01;;;;;;;4.32;2.78;;;;;;;34.54;23.18;100056.22;4996401;28;20042;-80
2022/05/11 10:10:49;;;;;;;8.30;3.53;;;;;;;34.34;23.25;100058.84;4997112;28;20031;-79
2022/05/11 10:13:15;;;;;;;3.90;2.83;;;;;;;34.03;22.36;100061.50;4979472;28;20476;-78
2022/05/11 10:24:37;;;;;;;5.13;2.95;;;;;;;33.94;22.82;100051.41;4977385;28;20100;-77
2022/05/11 10:27:23;;;;;;;4.38;2.90;;;;;;;33.90;21.83;100054.09;4977655;28;20026;-77
2022/05/11 10:30:10;;;;;;;3.50;3.20;;;;;;;33.69;22.53;100060.28;4975656;28;20054;-78
2022/05/11 10:32:40;;;;;;;7.32;4.22;;;;;;;33.07;23.61;100052.06;4977090;28;20038;-76
2022/05/11 10:35:20;;;;;;;3.70;3.17;;;;;;;33.11;24.63;100052.31;4977183;28;20042;-77
2022/05/11 10:37:49;;;;;;;3.53;2.67;;;;;;;33.28;24.13;100057.06;4978987;28;20047;-79
2022/05/11 10:40:30;;;;;;;7.47;4.07;;;;;;;33.23;24.27;100053.09;4978880;28;20133;-82
2022/05/11 10:43:19;;;;;;;5.55;3.53;;;;;;;32.99;24.52;100055.31;4963180;28;20053;-80
2022/05/11 10:45:57;;;;;;;4.70;3.58;;;;;;;32.97;24.89;100040.41;4982095;28;20436;-80
2022/05/11 10:48:32;;;;;;;5.93;3.80;;;;;;;32.61;24.96;100052.91;4981454;28;20093;-80
2022/05/11 10:51:21;;;;;;;5.53;3.42;;;;;;;32.50;25.65;100044.81;4980320;28;20037;-84
2022/05/11 10:54:09;;;;;;;3.13;2.90;;;;;;;32.41;26.39;100043.56;4979448;28;20069;-84
2022/05/11 10:56:47;;;;;;;3.78;3.33;;;;;;;32.55;24.90;100038.53;4943710;28;20023;-82
2022/05/11 10:59:32;;;;;;;5.35;2.70;;;;;;;32.35;23.28;100042.38;4976407;28;20425;-81
2022/05/11 11:02:09;;;;;;;5.22;2.78;;;;;;;32.23;25.29;100032.75;4975604;28;20113;-82
2022/05/11 11:04:54;;;;;;;3.20;2.90;;;;;;;32.42;25.88;100042.13;4976790;28;20490;-83
2022/05/11 11:07:39;;;;;;;3.35;2.80;;;;;;;31.79;24.83;100034.31;4975613;28;20120;-81
2022/05/11 11:10:04;;;;;;;5.22;3.05;;;;;;;31.70;25.27;100038.13;4959302;28;20061;-80
2022/05/11 11:12:49;;;;;;;3.40;3.10;;;;;;;31.23;25.80;100034.97;4976221;28;20031;-81
2022/05/11 11:15:18;;;;;;;3.47;3.15;;;;;;;31.28;26.23;100033.84;4977324;28;20158;-84
2022/05/11 11:17:48;;;;;;;7.00;3.78;;;;;;;31.45;25.54;100023.16;4943509;28;20129;-83
2022/05/11 11:20:18;;;;;;;6.18;3.10;;;;;;;31.70;25.85;100027.13;4958841;28;20031;-82
2022/05/11 11:23:28;;;;;;;7.00;3.33;;;;;;;31.69;24.16;100022.63;4943598;28;20045;-83
2022/05/11 11:25:59;;;;;;;4.53;3.08;;;;;;;31.78;26.29;100029.81;4976805;28;20468;-82
2022/05/11 11:28:29;;;;;;;;;;;;;;;31.48;26.36;100025.59;4959431;28;20415;-84
2022/05/11 11:31:00;;;;;;;2.55;2.35;;;;;;;31.23;25.32;100013.63;4943166;28;20290;-84
2022/05/11 11:33:31;;;;;;;4.32;3.40;;;;;;;31.30;25.99;100007.50;4976312;28;20051;-82
2022/05/11 11:36:03;;;;;;;2.88;2.42;;;;;;;31.11;25.80;100006.91;4976233;28;20062;-84
2022/05/11 11:38:45;;;;;;;5.90;2.67;;;;;;;31.12;26.22;100014.31;4974929;28;20391;-82
2022/05/11 11:41:22;;;;;;;5.00;2.40;;;;;;;31.15;25.76;100010.09;4958559;28;20022;-79
2022/05/11 11:44:03;;;;;;;3.10;2.80;;;;;;;31.39;25.42;100013.91;4975835;28;20506;-80
2022/05/11 11:46:41;;;;;;;6.18;2.65;;;;;;;31.11;26.09;100004.72;4977759;28;20054;-81
2022/05/11 11:49:09;;;;;;;3.03;2.63;;;;;;;30.48;25.92;100002.53;4974741;28;20019;-80
2022/05/11 11:52:06;;;;;;;4.35;2.78;;;;;;;30.08;26.34;100000.38;4999424;28;20074;-79
2022/05/11 11:54:41;;;;;;;4.68;3.03;;;;;;;30.14;26.60;99997.88;4982834;28;20124;-79
2022/05/11 11:57:25;;;;;;;4.72;3.10;;;;;;;30.25;26.72;99994.25;4999596;28;20034;-78
2022/05/11 11:59:58;;;;;;;3.20;3.00;;;;;;;30.36;26.83;99987.69;4998817;28;20026;-79
2022/05/11 12:02:45;;;;;;;4.13;2.75;;;;;;;30.32;27.26;99992.50;4983147;28;20086;-80
2022/05/11 12:05:44;;;;;;;3.60;3.33;;;;;;;30.20;27.03;99988.69;4960777;28;20031;-81
2022/05/11 12:16:57;;;;;;;3.50;3.20;;;;;;;30.48;25.71;99984.09;4979014;28;20073;-80
2022/05/11 12:19:25;;;;;;;3.33;2.53;;;;;;;30.26;27.90;99975.22;4946010;28;20042;-79
2022/05/11 12:22:14;;;;;;;4.18;3.20;;;;;;;30.34;27.46;99977.97;4960211;28;20046;-80
2022/05/11 12:25:02;;;;;;;3.03;2.45;;;;;;;30.18;27.08;99982.69;4945414;28;20103;-80